Time;durP1;ratioP1;P1;durP2;ratioP2;P2;SDS_P1;SDS_P2;PMS_P1;PMS_P2;Temp;Humidity;BMP_temperature;BMP_pressure;BME280_temperature;BME280_humidity;BME280_pressure;Samples;Min_cycle;Max_cycle;Signal;HPM_P1;HPM_P2
2022/04/10 00:02:18;;;;;;;;;;;4.60;99.90;;;;;;5011249;28;19928;-60
2022/04/10 00:04:43;;;;;;;;;;;4.60;99.90;;;;;;5012464;28;19991;-59
2022/04/10 00:07:09;;;;;;;;;;;4.50;99.90;;;;;;5010372;28;19910;-59
2022/04/10 00:09:35;;;;;;;;;;;4.50;99.90;;;;;;5010280;28;19965;-60
2022/04/10 00:12:00;;;;;;;;;;;4.50;99.90;;;;;;5009795;28;19937;-59
2022/04/10 00:14:26;;;;;;;;;;;4.50;99.90;;;;;;5010797;28;19914;-60
2022/04/10 00:16:51;;;;;;;;;;;4.40;99.90;;;;;;5013523;28;20005;-60
2022/04/10 00:19:17;;;;;;;;;;;4.50;99.90;;;;;;5009319;28;20303;-60
2022/04/10 00:21:44;;;;;;;;;;;4.40;99.90;;;;;;5009673;28;19957;-60
2022/04/10 00:24:11;;;;;;;;;;;4.40;99.90;;;;;;5009428;28;19921;-60
2022/04/10 00:26:36;;;;;;;;;;;4.40;99.90;;;;;;5009848;28;20252;-60
2022/04/10 00:29:02;;;;;;;;;;;4.40;99.90;;;;;;5012267;28;20016;-60
2022/04/10 00:31:28;;;;;;;;;;;4.40;99.90;;;;;;5011076;28;20381;-61
2022/04/10 00:33:53;;;;;;;;;;;4.40;99.90;;;;;;5009165;28;19914;-60
2022/04/10 00:36:20;;;;;;;;;;;4.40;99.90;;;;;;5010077;28;20500;-60
2022/04/10 00:38:45;;;;;;;;;;;4.40;99.90;;;;;;5010475;28;19921;-60
2022/04/10 00:41:11;;;;;;;;;;;4.40;99.90;;;;;;5012947;28;20037;-60
2022/04/10 00:43:38;;;;;;;;;;;4.40;99.90;;;;;;5011047;28;19917;-60
2022/04/10 00:46:04;;;;;;;;;;;4.40;99.90;;;;;;5009196;28;20341;-59
2022/04/10 00:48:29;;;;;;;;;;;4.40;99.90;;;;;;5011396;28;19914;-62
2022/04/10 00:53:41;;;;;;;;;;;4.40;99.90;;;;;;4996564;28;19921;-61
2022/04/10 00:56:07;;;;;;;;;;;4.40;99.90;;;;;;5012337;28;19909;-60
2022/04/10 00:58:32;;;;;;;;;;;4.30;99.90;;;;;;5011310;28;20052;-60
2022/04/10 01:00:58;;;;;;;;;;;4.30;99.90;;;;;;5009623;28;19921;-59
2022/04/10 01:03:23;;;;;;;;;;;4.30;99.90;;;;;;5009721;28;20000;-59
2022/04/10 01:05:49;;;;;;;;;;;4.30;99.90;;;;;;5010140;28;19928;-61
2022/04/10 01:08:15;;;;;;;;;;;4.30;99.90;;;;;;5011744;28;19916;-58
2022/04/10 01:10:43;;;;;;;;;;;4.20;99.90;;;;;;5011702;28;19913;-60
2022/04/10 01:13:09;;;;;;;;;;;4.30;99.90;;;;;;5009660;28;20413;-61
2022/04/10 01:15:35;;;;;;;;;;;4.20;99.90;;;;;;5009618;28;19918;-60
2022/04/10 01:18:01;;;;;;;;;;;4.20;99.90;;;;;;5009648;28;19917;-60
2022/04/10 01:20:26;;;;;;;;;;;4.20;99.90;;;;;;5010142;28;19976;-60
2022/04/10 01:22:52;;;;;;;;;;;4.20;99.90;;;;;;5013127;28;19952;-59
2022/04/10 01:25:18;;;;;;;;;;;4.20;99.90;;;;;;5009097;28;19957;-60
2022/04/10 01:27:44;;;;;;;;;;;4.20;99.90;;;;;;5009328;28;20290;-60
2022/04/10 01:30:11;;;;;;;;;;;4.20;99.90;;;;;;5009131;28;19940;-59
2022/04/10 01:32:37;;;;;;;;;;;4.20;99.90;;;;;;5008436;28;19944;-60
2022/04/10 01:35:03;;;;;;;;;;;4.10;99.90;;;;;;5012849;28;19917;-59
2022/04/10 01:37:29;;;;;;;;;;;4.10;99.90;;;;;;5010268;28;19916;-59
2022/04/10 01:39:54;;;;;;;;;;;4.10;99.90;;;;;;5009098;28;19913;-59
2022/04/10 01:42:20;;;;;;;;;;;4.10;99.90;;;;;;5024221;28;19921;-58
2022/04/10 01:44:45;;;;;;;;;;;4.00;99.90;;;;;;5008974;28;19921;-60
2022/04/10 01:47:11;;;;;;;;;;;4.00;99.90;;;;;;5011492;28;19916;-60
2022/04/10 01:49:37;;;;;;;;;;;4.00;99.90;;;;;;5010843;28;19909;-59
2022/04/10 01:52:04;;;;;;;;;;;4.00;99.90;;;;;;5009363;28;19929;-61
2022/04/10 01:54:29;;;;;;;;;;;4.00;99.90;;;;;;5008990;28;19913;-60
2022/04/10 01:56:55;;;;;;;;;;;4.00;99.90;;;;;;5009063;28;19913;-59
2022/04/10 01:59:21;;;;;;;;;;;4.00;99.90;;;;;;5009823;28;19922;-58
2022/04/10 02:01:48;;;;;;;;;;;4.00;99.90;;;;;;5011332;28;19964;-60
2022/04/10 02:04:14;;;;;;;;;;;4.10;99.90;;;;;;5008655;28;19921;-59
2022/04/10 02:06:39;;;;;;;;;;;4.10;99.90;;;;;;5008708;28;19921;-59
2022/04/10 02:09:07;;;;;;;;;;;4.00;99.90;;;;;;5008402;28;19914;-59
2022/04/10 02:11:33;;;;;;;;;;;4.00;99.90;;;;;;5009072;28;20430;-59
2022/04/10 02:13:59;;;;;;;;;;;4.00;99.90;;;;;;5011490;28;20373;-59
2022/04/10 02:16:25;;;;;;;;;;;4.00;99.90;;;;;;5009062;28;20382;-58
2022/04/10 02:18:51;;;;;;;;;;;4.00;99.90;;;;;;5008590;28;19953;-59
2022/04/10 02:21:16;;;;;;;;;;;4.00;99.90;;;;;;5008536;28;19953;-59
2022/04/10 02:23:42;;;;;;;;;;;4.00;99.90;;;;;;5008624;28;19925;-60
2022/04/10 02:26:11;;;;;;;;;;;3.90;99.90;;;;;;5010855;28;19947;-59
2022/04/10 02:28:37;;;;;;;;;;;3.90;99.90;;;;;;5009564;28;20378;-61
2022/04/10 02:31:03;;;;;;;;;;;3.90;99.90;;;;;;5008264;28;19920;-61
2022/04/10 02:33:28;;;;;;;;;;;3.80;99.90;;;;;;5008347;28;20426;-58
2022/04/10 02:35:53;;;;;;;;;;;3.70;99.90;;;;;;5008849;28;19914;-59
2022/04/10 02:38:19;;;;;;;;;;;3.70;99.90;;;;;;5009671;28;19975;-59
2022/04/10 02:40:45;;;;;;;;;;;3.70;99.90;;;;;;5010312;28;19909;-59
2022/04/10 02:43:10;;;;;;;;;;;3.60;99.90;;;;;;5007836;28;19965;-60
2022/04/10 02:45:39;;;;;;;;;;;3.60;99.90;;;;;;5007745;28;19922;-59
2022/04/10 02:48:04;;;;;;;;;;;3.60;99.90;;;;;;5008028;28;19975;-59
2022/04/10 02:50:30;;;;;;;;;;;3.50;99.90;;;;;;5008211;28;20366;-59
2022/04/10 02:52:55;;;;;;;;;;;3.50;99.90;;;;;;5012139;28;19913;-60
2022/04/10 02:55:21;;;;;;;;;;;3.50;99.90;;;;;;5008007;28;19921;-59
2022/04/10 02:57:46;;;;;;;;;;;3.50;99.90;;;;;;5007160;28;20278;-60
2022/04/10 03:00:12;;;;;;;;;;;3.40;99.90;;;;;;5008084;28;19917;-60
2022/04/10 03:02:38;;;;;;;;;;;3.40;99.90;;;;;;5008092;28;20410;-61
2022/04/10 03:05:04;;;;;;;;;;;3.40;99.90;;;;;;5010710;28;19972;-61
2022/04/10 03:07:29;;;;;;;;;;;3.40;99.90;;;;;;5008823;28;19910;-59
2022/04/10 03:09:55;;;;;;;;;;;3.40;99.90;;;;;;5007912;28;19925;-60
2022/04/10 03:12:20;;;;;;;;;;;3.40;99.90;;;;;;5007340;28;20004;-59
2022/04/10 03:14:46;;;;;;;;;;;3.40;99.90;;;;;;5008168;28;19929;-59
2022/04/10 03:17:11;;;;;;;;;;;3.30;99.90;;;;;;5010318;28;19910;-59
2022/04/10 03:19:37;;;;;;;;;;;3.30;99.90;;;;;;5008754;28;19932;-58
2022/04/10 03:22:02;;;;;;;;;;;3.30;99.90;;;;;;5007640;28;19926;-59
2022/04/10 03:24:28;;;;;;;;;;;3.30;99.90;;;;;;5007527;28;19927;-60
2022/04/10 03:26:53;;;;;;;;;;;3.30;99.90;;;;;;5007712;28;19927;-59
2022/04/10 03:29:18;;;;;;;;;;;3.30;99.90;;;;;;5009145;28;20021;-59
2022/04/10 03:31:44;;;;;;;;;;;3.30;99.90;;;;;;5009790;28;20428;-60
2022/04/10 03:34:10;;;;;;;;;;;3.30;99.90;;;;;;5007813;28;19968;-60
2022/04/10 03:36:35;;;;;;;;;;;3.20;99.90;;;;;;5007423;28;19956;-60
2022/04/10 03:39:00;;;;;;;;;;;3.20;99.90;;;;;;5006750;28;20362;-60
2022/04/10 03:41:26;;;;;;;;;;;3.20;99.90;;;;;;5007737;28;19921;-60
2022/04/10 03:43:51;;;;;;;;;;;3.10;99.90;;;;;;5010232;28;20338;-60
2022/04/10 03:46:17;;;;;;;;;;;3.10;99.90;;;;;;5007183;28;19940;-60
2022/04/10 03:48:42;;;;;;;;;;;3.10;99.90;;;;;;5007292;28;20378;-58
2022/04/10 03:51:08;;;;;;;;;;;3.10;99.90;;;;;;5006975;28;19920;-57
2022/04/10 03:53:34;;;;;;;;;;;3.00;99.90;;;;;;5007130;28;19921;-59
2022/04/10 03:56:00;;;;;;;;;;;3.00;99.90;;;;;;5010187;28;20017;-60
2022/04/10 03:58:25;;;;;;;;;;;3.00;99.90;;;;;;5007359;28;19909;-60
2022/04/10 04:00:51;;;;;;;;;;;3.00;99.90;;;;;;5006558;28;20618;-59
2022/04/10 04:03:17;;;;;;;;;;;3.00;99.90;;;;;;5007031;28;19913;-59
2022/04/10 04:05:43;;;;;;;;;;;2.90;99.90;;;;;;5006972;28;19929;-60
2022/04/10 04:08:08;;;;;;;;;;;2.90;99.90;;;;;;5008836;28;19915;-59
2022/04/10 04:10:34;;;;;;;;;;;2.90;99.90;;;;;;5010055;28;20006;-59
2022/04/10 04:13:00;;;;;;;;;;;2.90;99.90;;;;;;5010469;28;20370;-59
2022/04/10 04:15:25;;;;;;;;;;;2.90;99.90;;;;;;5010375;28;19937;-59
2022/04/10 04:17:51;;;;;;;;;;;2.80;99.90;;;;;;5010526;28;20353;-59
2022/04/10 04:20:17;;;;;;;;;;;2.80;99.90;;;;;;5011753;28;19926;-60
2022/04/10 04:22:42;;;;;;;;;;;2.80;99.90;;;;;;5012582;28;19956;-59
2022/04/10 04:25:08;;;;;;;;;;;2.80;99.90;;;;;;5009364;28;19953;-58
2022/04/10 04:27:33;;;;;;;;;;;2.80;99.90;;;;;;5010289;28;19917;-59
2022/04/10 04:30:01;;;;;;;;;;;2.70;99.90;;;;;;5010520;28;20328;-58
2022/04/10 04:32:26;;;;;;;;;;;2.70;99.90;;;;;;5010621;28;19921;-59
2022/04/10 04:34:52;;;;;;;;;;;2.70;99.90;;;;;;5013598;28;19955;-60
2022/04/10 04:37:17;;;;;;;;;;;2.70;99.90;;;;;;5010087;28;20385;-58
2022/04/10 04:39:43;;;;;;;;;;;2.60;99.90;;;;;;5010145;28;19955;-59
2022/04/10 04:42:08;;;;;;;;;;;2.70;99.90;;;;;;5016682;28;19921;-57
2022/04/10 04:44:34;;;;;;;;;;;2.60;99.90;;;;;;5009834;28;19926;-59
2022/04/10 04:46:59;;;;;;;;;;;2.60;99.90;;;;;;5029346;28;19917;-59
2022/04/10 04:49:25;;;;;;;;;;;2.60;99.90;;;;;;5011846;28;19909;-60
2022/04/10 04:51:51;;;;;;;;;;;2.60;99.90;;;;;;5009991;28;20439;-59
2022/04/10 04:54:16;;;;;;;;;;;2.60;99.90;;;;;;5009691;28;19924;-60
2022/04/10 04:56:42;;;;;;;;;;;2.60;99.90;;;;;;5009822;28;19917;-61
2022/04/10 04:59:07;;;;;;;;;;;2.60;99.90;;;;;;5012302;28;19917;-60
2022/04/10 05:01:33;;;;;;;;;;;2.60;99.90;;;;;;5023261;28;19917;-60
2022/04/10 05:03:58;;;;;;;;;;;2.60;99.90;;;;;;5012913;28;19935;-61
2022/04/10 05:06:25;;;;;;;;;;;2.60;99.90;;;;;;5009895;28;20290;-61
2022/04/10 05:08:51;;;;;;;;;;;2.60;99.90;;;;;;5009242;28;20004;-62
2022/04/10 05:11:16;;;;;;;;;;;2.60;99.90;;;;;;5011800;28;20011;-62
2022/04/10 05:13:42;;;;;;;;;;;2.60;99.90;;;;;;5011869;28;19910;-61
2022/04/10 05:16:08;;;;;;;;;;;2.60;99.90;;;;;;5012129;28;19964;-60
2022/04/10 05:18:34;;;;;;;;;;;2.60;99.90;;;;;;5009217;28;20008;-61
2022/04/10 05:20:59;;;;;;;;;;;2.60;99.90;;;;;;5009367;28;19913;-63
2022/04/10 05:23:25;;;;;;;;;;;2.60;99.90;;;;;;5009657;28;19961;-60
2022/04/10 05:25:50;;;;;;;;;;;2.60;99.90;;;;;;5012821;28;19921;-61
2022/04/10 05:28:16;;;;;;;;;;;2.60;99.90;;;;;;5009666;28;19964;-59
2022/04/10 05:30:42;;;;;;;;;;;2.60;99.90;;;;;;5009260;28;19956;-60
2022/04/10 05:33:08;;;;;;;;;;;2.60;99.90;;;;;;5009907;28;19913;-61
2022/04/10 05:35:34;;;;;;;;;;;2.60;99.90;;;;;;5009255;28;20722;-60
2022/04/10 05:37:59;;;;;;;;;;;2.60;99.90;;;;;;5012074;28;20382;-60
2022/04/10 05:40:25;;;;;;;;;;;2.60;99.90;;;;;;5011432;28;19909;-60
2022/04/10 05:42:50;;;;;;;;;;;2.70;99.90;;;;;;5009268;28;19918;-61
2022/04/10 05:45:16;;;;;;;;;;;2.70;99.90;;;;;;5009512;28;20064;-61
2022/04/10 05:47:42;;;;;;;;;;;2.70;99.90;;;;;;5009429;28;19914;-59
2022/04/10 05:50:08;;;;;;;;;;;2.80;99.90;;;;;;5011705;28;19916;-60
2022/04/10 05:52:38;;;;;;;;;;;2.80;99.90;;;;;;5009965;28;19913;-62
2022/04/10 05:55:04;;;;;;;;;;;2.80;99.90;;;;;;5008931;28;19928;-60
2022/04/10 05:57:29;;;;;;;;;;;2.90;99.90;;;;;;5009365;28;19913;-61
2022/04/10 05:59:55;;;;;;;;;;;3.00;99.90;;;;;;5008785;28;19939;-61
2022/04/10 06:02:20;;;;;;;;;;;3.00;99.90;;;;;;5010262;28;20448;-62
2022/04/10 06:04:46;;;;;;;;;;;3.10;99.90;;;;;;5011095;28;19917;-61
2022/04/10 06:07:11;;;;;;;;;;;3.20;99.90;;;;;;5008817;28;20020;-60
2022/04/10 06:09:37;;;;;;;;;;;3.20;99.90;;;;;;5008704;28;19914;-60
2022/04/10 06:12:02;;;;;;;;;;;3.30;99.90;;;;;;5008827;28;19964;-62
2022/04/10 06:14:28;;;;;;;;;;;3.30;99.90;;;;;;5009456;28;20297;-61
2022/04/10 06:16:53;;;;;;;;;;;3.40;99.90;;;;;;5027085;28;19921;-61
2022/04/10 06:19:19;;;;;;;;;;;3.40;99.90;;;;;;5008368;28;19928;-61
2022/04/10 06:21:45;;;;;;;;;;;3.50;99.90;;;;;;5008534;28;19944;-60
2022/04/10 06:24:10;;;;;;;;;;;3.50;99.90;;;;;;5008614;28;19941;-60
2022/04/10 06:26:36;;;;;;;;;;;3.60;99.90;;;;;;5008755;28;19918;-60
2022/04/10 06:29:02;;;;;;;;;;;3.70;99.90;;;;;;5011613;28;20012;-61
2022/04/10 06:31:28;;;;;;;;;;;3.80;99.90;;;;;;5008753;28;20004;-61
2022/04/10 06:33:56;;;;;;;;;;;3.80;99.90;;;;;;5008066;28;20441;-61
2022/04/10 06:36:22;;;;;;;;;;;3.90;99.90;;;;;;5008329;28;19952;-61
2022/04/10 06:38:49;;;;;;;;;;;3.90;99.90;;;;;;5008310;28;19949;-60
2022/04/10 06:41:14;;;;;;;;;;;4.00;99.90;;;;;;5010226;28;19909;-61
2022/04/10 06:43:40;;;;;;;;;;;4.10;99.90;;;;;;5009677;28;19910;-60
2022/04/10 06:46:06;;;;;;;;;;;4.10;99.90;;;;;;5007834;28;19957;-60
2022/04/10 06:48:32;;;;;;;;;;;4.20;99.90;;;;;;5008081;28;19913;-60
2022/04/10 06:50:57;;;;;;;;;;;4.30;99.90;;;;;;5008093;28;19917;-61
2022/04/10 06:53:23;;;;;;;;;;;4.30;99.90;;;;;;5008990;28;20386;-61
2022/04/10 06:55:48;;;;;;;;;;;4.40;99.90;;;;;;5010893;28;19914;-60
2022/04/10 06:58:15;;;;;;;;;;;4.40;99.90;;;;;;5008014;28;19925;-60
2022/04/10 07:00:41;;;;;;;;;;;4.50;99.90;;;;;;5008002;28;19936;-61
2022/04/10 07:03:06;;;;;;;;;;;4.50;99.90;;;;;;5007904;28;20378;-61
2022/04/10 07:05:32;;;;;;;;;;;4.60;99.90;;;;;;5008368;28;20004;-60
2022/04/10 07:07:57;;;;;;;;;;;4.70;99.90;;;;;;5010174;28;20386;-61
2022/04/10 07:10:23;;;;;;;;;;;4.80;99.90;;;;;;5008169;28;20692;-60
2022/04/10 07:12:48;;;;;;;;;;;4.80;99.90;;;;;;5007906;28;19914;-60
2022/04/10 07:15:14;;;;;;;;;;;4.90;99.90;;;;;;5007704;28;19921;-60
2022/04/10 07:17:39;;;;;;;;;;;4.90;99.90;;;;;;5007424;28;19945;-59
2022/04/10 07:20:05;;;;;;;;;;;5.00;99.90;;;;;;5010582;28;20382;-61
2022/04/10 07:25:15;;;;;;;;;;;5.10;99.90;;;;;;5007390;28;20409;-60
2022/04/10 07:27:40;;;;;;;;;;;5.10;99.90;;;;;;5007916;28;19913;-60
2022/04/10 07:30:06;;;;;;;;;;;5.20;99.90;;;;;;5007719;28;19910;-61
2022/04/10 07:32:32;;;;;;;;;;;5.20;99.90;;;;;;5007534;28;20402;-61
2022/04/10 07:35:00;;;;;;;;;;;5.30;99.90;;;;;;5011266;28;19933;-60
2022/04/10 07:37:26;;;;;;;;;;;5.40;99.90;;;;;;5010097;28;19920;-61
2022/04/10 07:39:52;;;;;;;;;;;5.40;99.90;;;;;;5007726;28;19909;-60
2022/04/10 07:42:17;;;;;;;;;;;5.40;99.90;;;;;;5007744;28;19913;-60
2022/04/10 07:44:42;;;;;;;;;;;5.50;99.90;;;;;;5010723;28;19957;-61
2022/04/10 07:47:26;;;;;;;;;;;5.50;99.90;;;;;;5013781;28;19913;-61
2022/04/10 07:49:53;;;;;;;;;;;5.60;99.90;;;;;;5014457;28;19917;-60
2022/04/10 07:52:19;;;;;;;;;;;5.60;99.90;;;;;;5011541;28;20414;-61
2022/04/10 07:54:44;;;;;;;;;;;5.70;99.90;;;;;;5011177;28;20013;-60
2022/04/10 07:57:10;;;;;;;;;;;5.80;99.90;;;;;;5011277;28;19949;-61
2022/04/10 07:59:36;;;;;;;;;;;5.80;99.90;;;;;;5011283;28;19968;-60
2022/04/10 08:02:02;;;;;;;;;;;5.90;99.90;;;;;;5013864;28;19913;-60
2022/04/10 08:04:28;;;;;;;;;;;6.00;99.90;;;;;;5012033;28;19924;-61
2022/04/10 08:06:54;;;;;;;;;;;6.00;99.90;;;;;;5011226;28;19921;-61
2022/04/10 08:09:20;;;;;;;;;;;6.10;99.90;;;;;;5011158;28;19914;-60
2022/04/10 08:11:45;;;;;;;;;;;6.10;99.90;;;;;;5010875;28;20028;-61
2022/04/10 08:14:11;;;;;;;;;;;6.10;99.90;;;;;;5013513;28;19960;-60
2022/04/10 08:16:36;;;;;;;;;;;6.20;99.90;;;;;;5011739;28;20008;-61
2022/04/10 08:19:02;;;;;;;;;;;6.20;99.90;;;;;;5010590;28;19925;-60
2022/04/10 08:21:27;;;;;;;;;;;6.30;99.90;;;;;;5010676;28;19917;-59
2022/04/10 08:23:53;;;;;;;;;;;6.30;99.90;;;;;;5011293;28;19936;-61
2022/04/10 08:26:18;;;;;;;;;;;6.30;99.90;;;;;;5012136;28;19930;-60
2022/04/10 08:28:44;;;;;;;;;;;6.40;99.90;;;;;;5028022;28;19956;-60
2022/04/10 08:31:09;;;;;;;;;;;6.40;99.90;;;;;;5010445;28;19917;-60
2022/04/10 08:33:35;;;;;;;;;;;6.50;99.90;;;;;;5010055;28;19913;-60
2022/04/10 08:36:00;;;;;;;;;;;6.60;99.90;;;;;;5010774;28;19920;-61
2022/04/10 08:38:26;;;;;;;;;;;6.60;99.90;;;;;;5010824;28;19921;-60
2022/04/10 08:40:55;;;;;;;;;;;6.60;99.90;;;;;;5013385;28;19910;-59
2022/04/10 08:43:21;;;;;;;;;;;6.70;99.90;;;;;;5010689;28;19914;-61
2022/04/10 08:45:46;;;;;;;;;;;6.70;99.90;;;;;;5009827;28;20420;-60
2022/04/10 08:48:12;;;;;;;;;;;6.80;99.90;;;;;;5010641;28;19960;-60
2022/04/10 08:50:38;;;;;;;;;;;6.80;99.90;;;;;;5010096;28;19964;-61
2022/04/10 08:53:04;;;;;;;;;;;6.80;99.90;;;;;;5013322;28;19953;-61
2022/04/10 08:55:30;;;;;;;;;;;6.90;99.90;;;;;;5010634;28;19913;-60
2022/04/10 08:57:55;;;;;;;;;;;6.90;99.90;;;;;;5025332;28;19921;-61
2022/04/10 09:00:22;;;;;;;;;;;6.90;99.90;;;;;;5009909;28;19914;-59
2022/04/10 09:02:51;;;;;;;;;;;7.00;99.90;;;;;;5009996;28;20341;-61
2022/04/10 09:05:17;;;;;;;;;;;6.90;99.90;;;;;;5012147;28;19922;-59
2022/04/10 09:08:02;;;;;;;;;;;7.00;99.90;;;;;;5011829;28;19920;-61
2022/04/10 09:10:28;;;;;;;;;;;7.00;99.90;;;;;;5010587;28;19960;-60
2022/04/10 09:12:53;;;;;;;;;;;7.00;99.90;;;;;;5009638;28;19956;-61
2022/04/10 09:15:20;;;;;;;;;;;7.10;99.90;;;;;;5009493;28;19914;-59
2022/04/10 09:17:54;;;;;;;;;;;7.10;99.90;;;;;;5010007;28;19910;-60
2022/04/10 09:20:20;;;;;;;;;;;7.10;99.90;;;;;;5011181;28;19930;-60
2022/04/10 09:22:45;;;;;;;;;;;7.20;99.90;;;;;;5011935;28;19916;-60
2022/04/10 09:25:14;;;;;;;;;;;7.20;99.90;;;;;;5009661;28;20624;-61
2022/04/10 09:27:46;;;;;;;;;;;7.20;99.90;;;;;;5024701;28;19914;-60
2022/04/10 09:30:13;;;;;;;;;;;7.40;99.90;;;;;;5009201;28;19914;-60
2022/04/10 09:32:43;;;;;;;;;;;7.40;99.90;;;;;;5009690;28;19914;-61
2022/04/10 09:35:09;;;;;;;;;;;7.40;99.90;;;;;;5011867;28;19909;-61
2022/04/10 09:37:42;;;;;;;;;;;7.50;99.90;;;;;;5010291;28;19953;-60
2022/04/10 09:40:23;;;;;;;;;;;7.50;99.90;;;;;;5009561;28;20433;-61
2022/04/10 09:42:49;;;;;;;;;;;7.70;99.90;;;;;;5008830;28;20623;-61
2022/04/10 09:45:28;;;;;;;;;;;7.70;99.90;;;;;;5009441;28;20390;-60
2022/04/10 09:47:53;;;;;;;;;;;7.70;99.90;;;;;;5009466;28;19953;-60
2022/04/10 09:50:28;;;;;;;;;;;7.80;99.90;;;;;;5010325;28;20051;-61
2022/04/10 09:52:54;;;;;;;;;;;7.80;99.90;;;;;;5012577;28;20385;-61
2022/04/10 09:55:36;;;;;;;;;;;7.80;99.90;;;;;;5009021;28;19940;-61
2022/04/10 09:58:05;;;;;;;;;;;7.80;99.90;;;;;;5008234;28;19917;-60
2022/04/10 10:00:30;;;;;;;;;;;7.90;99.90;;;;;;5008868;28;19949;-60
2022/04/10 10:02:56;;;;;;;;;;;8.00;99.90;;;;;;5009050;28;19968;-60
2022/04/10 10:05:23;;;;;;;;;;;8.10;99.90;;;;;;5009945;28;19917;-60
2022/04/10 10:07:49;;;;;;;;;;;8.10;99.90;;;;;;5010830;28;19940;-60
2022/04/10 10:10:18;;;;;;;;;;;8.20;99.90;;;;;;5008452;28;20028;-60
2022/04/10 10:12:45;;;;;;;;;;;8.20;99.90;;;;;;5023770;28;20365;-60
2022/04/10 10:15:10;;;;;;;;;;;8.30;99.90;;;;;;5008756;28;19992;-60
2022/04/10 10:17:37;;;;;;;;;;;8.30;99.90;;;;;;5009171;28;20446;-60
2022/04/10 10:20:03;;;;;;;;;;;8.30;99.90;;;;;;5011430;28;19937;-61
2022/04/10 10:22:29;;;;;;;;;;;8.30;99.90;;;;;;5009290;28;19928;-60
2022/04/10 10:25:00;;;;;;;;;;;8.30;99.90;;;;;;5008573;28;19917;-61
2022/04/10 10:27:34;;;;;;;;;;;8.30;99.90;;;;;;5008213;28;20267;-59
2022/04/10 10:30:18;;;;;;;;;;;8.30;99.90;;;;;;5008350;28;19996;-60
2022/04/10 10:32:55;;;;;;;;;;;8.30;99.90;;;;;;4994503;28;19913;-60
2022/04/10 10:35:40;;;;;;;;;;;8.30;99.90;;;;;;5009752;28;19957;-59
2022/04/10 10:38:18;;;;;;;;;;;8.30;99.90;;;;;;5007713;28;19949;-61
2022/04/10 10:40:43;;;;;;;;;;;8.40;99.90;;;;;;5009761;28;19992;-60
2022/04/10 10:43:09;;;;;;;;;;;8.40;99.90;;;;;;5008153;28;19992;-60
2022/04/10 10:45:38;;;;;;;;;;;8.40;99.90;;;;;;5008278;28;20333;-60
2022/04/10 10:48:26;;;;;;;;;;;8.40;99.90;;;;;;5007852;28;20317;-61
2022/04/10 10:50:59;;;;;;;;;;;8.50;99.90;;;;;;5008497;28;19917;-60
2022/04/10 10:53:43;;;;;;;;;;;8.50;99.90;;;;;;5008944;28;19960;-61
2022/04/10 10:56:26;;;;;;;;;;;8.50;99.90;;;;;;5010351;28;19913;-61
2022/04/10 10:58:54;;;;;;;;;;;8.60;99.90;;;;;;5011745;28;20048;-61
2022/04/10 11:01:25;;;;;;;;;;;8.60;99.90;;;;;;5008007;28;19913;-60
2022/04/10 11:04:01;;;;;;;;;;;8.60;99.90;;;;;;5008165;28;19913;-60
2022/04/10 11:06:28;;;;;;;;;;;8.60;99.90;;;;;;5008001;28;19925;-60
2022/04/10 11:08:54;;;;;;;;;;;8.60;99.90;;;;;;5007987;28;19914;-61
2022/04/10 11:11:19;;;;;;;;;;;8.70;99.90;;;;;;5007970;28;20390;-60
2022/04/10 11:13:48;;;;;;;;;;;8.80;99.90;;;;;;5009926;28;19917;-60
2022/04/10 11:16:13;;;;;;;;;;;9.00;99.90;;;;;;5007386;28;19918;-60
2022/04/10 11:18:43;;;;;;;;;;;9.10;99.90;;;;;;5007511;28;19968;-60
2022/04/10 11:21:14;;;;;;;;;;;9.20;99.90;;;;;;5007808;28;19913;-60
2022/04/10 11:23:41;;;;;;;;;;;9.30;99.90;;;;;;5008263;28;19921;-61
2022/04/10 11:26:18;;;;;;;;;;;9.30;99.90;;;;;;5009423;28;19917;-59
2022/04/10 11:29:11;;;;;;;;;;;9.30;99.90;;;;;;5009587;28;19909;-62
2022/04/10 11:31:38;;;;;;;;;;;9.40;99.90;;;;;;5011513;28;19917;-60
2022/04/10 11:34:20;;;;;;;;;;;9.40;99.90;;;;;;5007837;28;20294;-61
2022/04/10 11:36:52;;;;;;;;;;;9.40;99.90;;;;;;5008945;28;20314;-61
2022/04/10 11:39:35;;;;;;;;;;;9.40;99.90;;;;;;5007011;28;19921;-60
2022/04/10 11:42:05;;;;;;;;;;;9.40;99.90;;;;;;5007605;28;20367;-60
2022/04/10 11:44:31;;;;;;;;;;;9.60;99.90;;;;;;4992036;28;20429;-60
2022/04/10 11:47:01;;;;;;;;;;;9.70;99.90;;;;;;5007435;28;19913;-61
2022/04/10 11:49:26;;;;;;;;;;;9.80;99.90;;;;;;5009166;28;19914;-61
2022/04/10 11:51:53;;;;;;;;;;;9.90;99.90;;;;;;5007621;28;19920;-61
2022/04/10 11:54:36;;;;;;;;;;;9.90;99.90;;;;;;5007268;28;20362;-59
2022/04/10 11:57:03;;;;;;;;;;;9.90;99.90;;;;;;5007338;28;20004;-59
2022/04/10 11:59:36;;;;;;;;;;;9.90;99.90;;;;;;5007619;28;19913;-63
2022/04/10 12:02:03;;;;;;;;;;;10.00;99.90;;;;;;5010131;28;19924;-59
2022/04/10 12:04:29;;;;;;;;;;;10.00;99.90;;;;;;5007421;28;19910;-60
2022/04/10 12:07:09;;;;;;;;;;;9.90;99.90;;;;;;5006801;28;20393;-59
2022/04/10 12:09:34;;;;;;;;;;;9.90;99.90;;;;;;5006340;28;19921;-62
2022/04/10 12:12:00;;;;;;;;;;;9.90;99.90;;;;;;5006583;28;19913;-61
2022/04/10 12:14:25;;;;;;;;;;;9.90;99.90;;;;;;5007941;28;19914;-59
2022/04/10 12:16:54;;;;;;;;;;;9.90;99.90;;;;;;5009761;28;19979;-61
2022/04/10 12:19:35;;;;;;;;;;;10.00;99.90;;;;;;5006321;28;20481;-61
2022/04/10 12:22:02;;;;;;;;;;;10.00;99.90;;;;;;5006632;28;20007;-60
2022/04/10 12:24:27;;;;;;;;;;;10.10;99.90;;;;;;5006401;28;19914;-59
2022/04/10 12:26:53;;;;;;;;;;;10.20;99.90;;;;;;5006802;28;19926;-61
2022/04/10 12:29:20;;;;;;;;;;;10.20;99.90;;;;;;5008848;28;19910;-60
2022/04/10 12:31:47;;;;;;;;;;;10.30;99.90;;;;;;5011752;28;19909;-58
2022/04/10 12:34:13;;;;;;;;;;;10.30;99.90;;;;;;5009987;28;19913;-59
2022/04/10 12:36:46;;;;;;;;;;;10.40;99.90;;;;;;5009398;28;20378;-60
2022/04/10 12:39:22;;;;;;;;;;;10.50;99.90;;;;;;5009994;28;19921;-58
2022/04/10 12:41:56;;;;;;;;;;;10.50;99.90;;;;;;5010471;28;20405;-61
2022/04/10 12:44:24;;;;;;;;;;;10.50;99.90;;;;;;5011384;28;19921;-61
2022/04/10 12:46:50;;;;;;;;;;;10.50;99.90;;;;;;5012356;28;19914;-60
2022/04/10 12:49:19;;;;;;;;;;;10.60;99.90;;;;;;5009929;28;19960;-60
2022/04/10 12:51:48;;;;;;;;;;;10.50;99.90;;;;;;5009988;28;19913;-60
2022/04/10 12:54:14;;;;;;;;;;;10.50;99.90;;;;;;5009870;28;19952;-60
2022/04/10 12:56:40;;;;;;;;;;;10.50;99.90;;;;;;5010293;28;19948;-60
2022/04/10 12:59:05;;;;;;;;;;;10.60;99.90;;;;;;5012303;28;19909;-60
2022/04/10 13:01:32;;;;;;;;;;;10.50;99.90;;;;;;5010531;28;19973;-61
2022/04/10 13:04:01;;;;;;;;;;;10.50;99.90;;;;;;5009512;28;19917;-61
2022/04/10 13:06:45;;;;;;;;;;;10.50;99.90;;;;;;5009354;28;20310;-60
2022/04/10 13:09:13;;;;;;;;;;;10.50;99.90;;;;;;5009597;28;19918;-60
2022/04/10 13:11:40;;;;;;;;;;;10.40;99.90;;;;;;5009366;28;19913;-60
2022/04/10 13:14:10;;;;;;;;;;;10.40;99.90;;;;;;5012225;28;19917;-59
2022/04/10 13:16:40;;;;;;;;;;;10.50;99.90;;;;;;5012108;28;19936;-59
2022/04/10 13:19:07;;;;;;;;;;;10.60;99.90;;;;;;5009382;28;20465;-60
2022/04/10 13:21:32;;;;;;;;;;;10.60;99.90;;;;;;5008801;28;19963;-59
2022/04/10 13:23:58;;;;;;;;;;;10.60;99.90;;;;;;5009161;28;20004;-62
2022/04/10 13:26:24;;;;;;;;;;;10.60;99.90;;;;;;5010580;28;19929;-59
2022/04/10 13:28:50;;;;;;;;;;;10.60;99.90;;;;;;5011663;28;19913;-60
2022/04/10 13:31:16;;;;;;;;;;;10.60;99.90;;;;;;5009431;28;19967;-60
2022/04/10 13:33:41;;;;;;;;;;;10.70;99.90;;;;;;5008882;28;19913;-58
2022/04/10 13:36:07;;;;;;;;;;;10.70;99.90;;;;;;5008360;28;19972;-61
2022/04/10 13:38:32;;;;;;;;;;;10.80;99.90;;;;;;5009124;28;19913;-61
2022/04/10 13:40:58;;;;;;;;;;;10.80;99.90;;;;;;5012920;28;19913;-60
2022/04/10 13:43:24;;;;;;;;;;;10.80;99.90;;;;;;5008648;28;19914;-59
2022/04/10 13:45:49;;;;;;;;;;;10.80;99.90;;;;;;5008794;28;19944;-61
2022/04/10 13:48:15;;;;;;;;;;;10.80;99.90;;;;;;5008241;28;19913;-59
2022/04/10 13:50:40;;;;;;;;;;;10.90;99.90;;;;;;5008248;28;20004;-60
2022/04/10 13:53:06;;;;;;;;;;;10.90;99.90;;;;;;5011704;28;19956;-61
2022/04/10 13:55:31;;;;;;;;;;;10.90;99.90;;;;;;5009203;28;20740;-59
2022/04/10 13:57:57;;;;;;;;;;;11.00;99.90;;;;;;5008203;28;19979;-60
2022/04/10 14:00:22;;;;;;;;;;;11.00;99.90;;;;;;5008740;28;20606;-60
2022/04/10 14:02:48;;;;;;;;;;;11.00;99.90;;;;;;5008394;28;19971;-61
2022/04/10 14:05:13;;;;;;;;;;;11.20;99.90;;;;;;5025041;28;20359;-62
2022/04/10 14:07:39;;;;;;;;;;;11.30;99.90;;;;;;5010248;28;19917;-60
2022/04/10 14:10:05;;;;;;;;;;;11.30;99.90;;;;;;5008732;28;19917;-61
2022/04/10 14:12:30;;;;;;;;;;;11.40;99.90;;;;;;5008799;28;19917;-61
2022/04/10 14:14:56;;;;;;;;;;;11.50;99.90;;;;;;5009079;28;20004;-61
2022/04/10 14:17:22;;;;;;;;;;;11.50;99.90;;;;;;5010603;28;20008;-61
2022/04/10 14:19:48;;;;;;;;;;;11.60;99.90;;;;;;5010592;28;19921;-61
2022/04/10 14:22:13;;;;;;;;;;;11.70;99.90;;;;;;5008654;28;19924;-60
2022/04/10 14:24:38;;;;;;;;;;;11.70;99.90;;;;;;5023353;28;19924;-61
2022/04/10 14:27:04;;;;;;;;;;;11.70;99.90;;;;;;5008779;28;19963;-61
2022/04/10 14:29:29;;;;;;;;;;;11.70;99.90;;;;;;4993177;28;20028;-61
2022/04/10 14:31:55;;;;;;;;;;;11.70;99.90;;;;;;5011948;28;19957;-61
2022/04/10 14:34:20;;;;;;;;;;;11.70;99.90;;;;;;5008040;28;19937;-61